createdAt,value
2016-11-19T00:00:17.368Z,0
2016-11-19T00:01:17.346Z,0
2016-11-19T00:02:17.309Z,0
2016-11-19T00:03:17.626Z,0
2016-11-19T00:04:17.298Z,0
2016-11-19T00:05:17.268Z,0
2016-11-19T00:06:17.286Z,0
2016-11-19T00:07:17.248Z,0
2016-11-19T00:08:17.234Z,0
2016-11-19T00:09:17.223Z,0
2016-11-19T00:10:17.535Z,0
2016-11-19T00:11:17.510Z,0
2016-11-19T00:12:17.169Z,0
2016-11-19T00:13:17.171Z,0
2016-11-19T00:14:17.147Z,0
2016-11-19T00:15:17.140Z,0
2016-11-19T00:16:18.024Z,0
2016-11-19T00:17:17.461Z,0
2016-11-19T00:18:17.610Z,0
2016-11-19T00:19:18.289Z,0
2016-11-19T00:20:17.177Z,0
2016-11-19T00:21:17.054Z,0
2016-11-19T00:22:17.035Z,0
2016-11-19T00:23:17.049Z,0
2016-11-19T00:24:17.005Z,0
2016-11-19T00:25:17.002Z,0
2016-11-19T00:26:16.983Z,0
2016-11-19T00:27:16.969Z,0
2016-11-19T00:28:16.959Z,0
2016-11-19T00:29:16.979Z,0
2016-11-19T00:30:16.931Z,0
2016-11-19T00:31:17.071Z,0
2016-11-19T00:32:16.913Z,0
2016-11-19T00:33:16.921Z,0
2016-11-19T00:34:16.875Z,0
2016-11-19T00:35:16.863Z,0
2016-11-19T00:36:16.845Z,0
2016-11-19T00:37:17.181Z,0
2016-11-19T00:38:16.827Z,0
2016-11-19T00:39:16.806Z,0
2016-11-19T00:40:16.797Z,0
2016-11-19T00:41:16.775Z,0
2016-11-19T00:42:16.777Z,0
2016-11-19T00:43:16.775Z,0
2016-11-19T00:44:16.739Z,0
2016-11-19T00:45:16.737Z,0
2016-11-19T00:46:16.740Z,0
2016-11-19T00:47:17.770Z,0
2016-11-19T00:48:17.415Z,0
2016-11-19T00:49:17.418Z,0
2016-11-19T00:50:16.707Z,0
2016-11-19T00:51:16.641Z,0
2016-11-19T00:52:16.630Z,0
2016-11-19T00:53:16.654Z,0
2016-11-19T00:54:16.603Z,0
2016-11-19T00:55:16.591Z,0
2016-11-19T00:56:16.573Z,0
2016-11-19T00:57:16.561Z,0
2016-11-19T00:58:16.555Z,0
2016-11-19T00:59:16.567Z,0
2016-11-19T01:00:16.536Z,0
2016-11-19T01:01:16.508Z,0
2016-11-19T01:02:16.491Z,0
2016-11-19T01:03:16.503Z,0
2016-11-19T01:04:16.497Z,0
2016-11-19T01:05:16.457Z,0
2016-11-19T01:06:16.440Z,0
2016-11-19T01:07:16.427Z,0
2016-11-19T01:08:16.420Z,0
2016-11-19T01:09:16.428Z,0
2016-11-19T01:10:16.433Z,0
2016-11-19T01:11:16.447Z,0
2016-11-19T01:12:16.361Z,0
2016-11-19T01:13:16.400Z,0
2016-11-19T01:14:16.400Z,0
2016-11-19T01:15:16.428Z,0
2016-11-19T01:16:16.464Z,0
2016-11-19T01:17:16.427Z,0
2016-11-19T01:18:16.326Z,0
2016-11-19T01:19:16.337Z,0
2016-11-19T01:20:16.438Z,0
2016-11-19T01:21:16.354Z,0
2016-11-19T01:22:16.350Z,0
2016-11-19T01:23:16.365Z,0
2016-11-19T01:24:16.290Z,0
2016-11-19T01:25:16.300Z,0
2016-11-19T01:26:16.280Z,0
2016-11-19T01:27:16.292Z,0
2016-11-19T01:28:16.296Z,0
2016-11-19T01:29:16.453Z,0
2016-11-19T01:30:16.340Z,0
2016-11-19T01:31:16.385Z,0
2016-11-19T01:32:16.308Z,0
2016-11-19T01:33:17.728Z,0
2016-11-19T01:34:16.302Z,0
2016-11-19T01:35:16.665Z,0
2016-11-19T01:36:16.283Z,0
2016-11-19T01:37:16.207Z,0
2016-11-19T01:38:16.203Z,0
2016-11-19T01:39:16.210Z,0
2016-11-19T01:40:16.208Z,0
2016-11-19T01:41:16.214Z,0
2016-11-19T01:42:16.249Z,0
2016-11-19T01:43:16.106Z,0
2016-11-19T01:44:18.517Z,0
2016-11-19T01:45:18.116Z,0
2016-11-19T01:46:16.070Z,0
2016-11-19T01:47:16.034Z,0
2016-11-19T01:48:16.094Z,0
2016-11-19T01:49:16.063Z,0
2016-11-19T01:50:16.035Z,0
2016-11-19T01:51:16.042Z,0
2016-11-19T01:52:15.902Z,0
2016-11-19T01:53:16.276Z,0
2016-11-19T01:54:15.879Z,0
2016-11-19T01:55:15.893Z,0
2016-11-19T01:56:16.097Z,0
2016-11-19T01:57:15.923Z,0
2016-11-19T01:58:15.748Z,0
2016-11-19T01:59:15.967Z,0
2016-11-19T02:00:15.719Z,0
2016-11-19T02:01:15.733Z,0
2016-11-19T02:02:15.706Z,0
2016-11-19T02:03:15.693Z,0
2016-11-19T02:04:15.645Z,0
2016-11-19T02:05:17.356Z,0
2016-11-19T02:06:15.617Z,0
2016-11-19T02:07:15.607Z,0
2016-11-19T02:08:15.589Z,0
2016-11-19T02:09:15.579Z,0
2016-11-19T02:10:15.561Z,0
2016-11-19T02:11:15.553Z,0
2016-11-19T02:12:15.539Z,0
2016-11-19T02:13:15.545Z,0
2016-11-19T02:14:15.585Z,0
2016-11-19T02:15:15.505Z,0
2016-11-19T02:16:15.484Z,0
2016-11-19T02:17:15.477Z,0
2016-11-19T02:18:15.459Z,0
2016-11-19T02:19:15.554Z,0
2016-11-19T02:20:15.504Z,0
2016-11-19T02:21:15.412Z,0
2016-11-19T02:22:15.431Z,0
2016-11-19T02:23:15.705Z,0
2016-11-19T02:24:15.372Z,0
2016-11-19T02:25:15.354Z,0
2016-11-19T02:26:15.358Z,0
2016-11-19T02:27:16.762Z,0
2016-11-19T02:28:17.462Z,0
2016-11-19T02:29:18.320Z,0
2016-11-19T02:30:15.918Z,0
2016-11-19T02:31:16.249Z,0
2016-11-19T02:32:15.268Z,0
2016-11-19T02:33:15.250Z,0
2016-11-19T02:34:15.234Z,0
2016-11-19T02:35:15.583Z,0
2016-11-19T02:36:15.202Z,0
2016-11-19T02:37:15.207Z,0
2016-11-19T02:38:15.177Z,0
2016-11-19T02:39:15.180Z,0
2016-11-19T02:40:15.151Z,0
2016-11-19T02:41:15.449Z,0
2016-11-19T02:42:15.133Z,0
2016-11-19T02:43:15.187Z,0
2016-11-19T02:44:15.142Z,0
2016-11-19T02:45:15.088Z,0
2016-11-19T02:46:15.076Z,0
2016-11-19T02:47:15.063Z,0
2016-11-19T02:48:15.038Z,0
2016-11-19T02:49:15.026Z,0
2016-11-19T02:50:15.007Z,0
2016-11-19T02:51:15.004Z,0
2016-11-19T02:52:14.995Z,0
2016-11-19T02:53:15.299Z,0
2016-11-19T02:54:15.509Z,0
2016-11-19T02:55:14.962Z,0
2016-11-19T02:56:14.953Z,0
2016-11-19T02:57:15.009Z,0
2016-11-19T02:58:14.963Z,0
2016-11-19T02:59:14.934Z,0
2016-11-19T03:00:14.881Z,0
2016-11-19T03:01:14.892Z,0
2016-11-19T03:02:14.861Z,0
2016-11-19T03:03:14.835Z,0
2016-11-19T03:04:14.824Z,0
2016-11-19T03:05:14.808Z,0
2016-11-19T03:06:14.798Z,0
2016-11-19T03:07:14.794Z,0
2016-11-19T03:08:14.770Z,0
2016-11-19T03:09:14.759Z,0
2016-11-19T03:10:14.743Z,0
2016-11-19T03:11:14.739Z,0
2016-11-19T03:12:14.955Z,0
2016-11-19T03:13:14.794Z,0
2016-11-19T03:14:14.739Z,0
2016-11-19T03:15:14.688Z,0
2016-11-19T03:16:14.674Z,0
2016-11-19T03:17:14.659Z,0
2016-11-19T03:18:14.828Z,0
2016-11-19T03:19:14.652Z,0
2016-11-19T03:20:14.606Z,0
2016-11-19T03:21:14.604Z,0
2016-11-19T03:22:14.579Z,0
2016-11-19T03:23:14.555Z,0
2016-11-19T03:24:14.554Z,0
2016-11-19T03:25:14.615Z,0
2016-11-19T03:26:16.136Z,0
2016-11-19T03:27:14.991Z,0
2016-11-19T03:28:18.440Z,0
2016-11-19T03:29:18.304Z,0
2016-11-19T03:30:14.521Z,0
2016-11-19T03:31:14.462Z,0
2016-11-19T03:32:14.447Z,0
2016-11-19T03:33:14.720Z,0
2016-11-19T03:34:14.430Z,0
2016-11-19T03:35:14.414Z,0
2016-11-19T03:36:14.399Z,0
2016-11-19T03:37:14.444Z,0
2016-11-19T03:38:14.375Z,0
2016-11-19T03:39:14.404Z,0
2016-11-19T03:40:14.454Z,0
2016-11-19T03:41:14.356Z,0
2016-11-19T03:42:14.322Z,0
2016-11-19T03:43:14.314Z,0
2016-11-19T03:44:14.287Z,0
2016-11-19T03:45:14.273Z,0
2016-11-19T03:46:14.267Z,0
2016-11-19T03:47:14.371Z,0
2016-11-19T03:48:14.232Z,0
2016-11-19T03:49:14.220Z,0
2016-11-19T03:50:14.202Z,0
2016-11-19T03:51:14.200Z,0
2016-11-19T03:52:14.180Z,0
2016-11-19T03:53:14.162Z,0
2016-11-19T03:54:14.187Z,0
2016-11-19T03:55:14.140Z,0
2016-11-19T03:56:14.126Z,0
2016-11-19T03:57:17.100Z,0
2016-11-19T03:58:14.624Z,0
2016-11-19T03:59:14.308Z,0
2016-11-19T04:00:14.073Z,0
2016-11-19T04:01:14.075Z,0
2016-11-19T04:02:14.068Z,0
2016-11-19T04:03:14.087Z,0
2016-11-19T04:04:14.096Z,0
2016-11-19T04:05:14.102Z,0
2016-11-19T04:06:14.044Z,0
2016-11-19T04:07:14.047Z,0
2016-11-19T04:08:14.061Z,0
2016-11-19T04:09:14.031Z,0
2016-11-19T04:10:14.089Z,0
2016-11-19T04:11:14.293Z,0
2016-11-19T04:12:14.211Z,0
2016-11-19T04:13:14.003Z,0
2016-11-19T04:14:13.997Z,0
2016-11-19T04:15:14.012Z,0
2016-11-19T04:16:14.022Z,0
2016-11-19T04:17:14.027Z,0
2016-11-19T04:18:14.027Z,0
2016-11-19T04:19:13.967Z,0
2016-11-19T04:20:13.975Z,0
2016-11-19T04:21:13.981Z,0
2016-11-19T04:22:13.955Z,0
2016-11-19T04:23:13.969Z,0
2016-11-19T04:24:13.900Z,0
2016-11-19T04:25:13.911Z,0
2016-11-19T04:26:13.909Z,0
2016-11-19T04:27:13.930Z,0
2016-11-19T04:28:13.928Z,0
2016-11-19T04:29:13.934Z,0
2016-11-19T04:30:13.947Z,0
2016-11-19T04:31:13.945Z,0
2016-11-19T04:32:13.800Z,0
2016-11-19T04:33:13.821Z,0
2016-11-19T04:34:13.883Z,0
2016-11-19T04:35:13.876Z,0
2016-11-19T04:36:13.904Z,0
2016-11-19T04:37:13.739Z,0
2016-11-19T04:38:13.728Z,0
2016-11-19T04:39:13.769Z,0
2016-11-19T04:40:13.766Z,0
2016-11-19T04:41:13.755Z,0
2016-11-19T04:42:13.765Z,0
2016-11-19T04:43:13.720Z,0
2016-11-19T04:44:13.580Z,0
2016-11-19T04:45:13.579Z,0
2016-11-19T04:46:13.577Z,0
2016-11-19T04:47:13.965Z,0
2016-11-19T04:48:13.425Z,0
2016-11-19T04:49:13.726Z,0
2016-11-19T04:50:13.432Z,0
2016-11-19T04:51:13.395Z,0
2016-11-19T04:52:13.374Z,0
2016-11-19T04:53:13.369Z,0
2016-11-19T04:54:13.381Z,0
2016-11-19T04:55:13.944Z,0
2016-11-19T04:56:13.370Z,0
2016-11-19T04:57:13.591Z,0
2016-11-19T04:58:13.303Z,0
2016-11-19T04:59:13.315Z,0
2016-11-19T05:00:13.275Z,0
2016-11-19T05:01:13.273Z,0
2016-11-19T05:02:13.253Z,0
2016-11-19T05:03:13.303Z,0
2016-11-19T05:04:13.253Z,0
2016-11-19T05:05:13.397Z,0
2016-11-19T05:06:13.427Z,0
2016-11-19T05:07:13.172Z,0
2016-11-19T05:08:13.167Z,0
2016-11-19T05:09:13.273Z,0
2016-11-19T05:10:13.218Z,0
2016-11-19T05:11:13.706Z,0
2016-11-19T05:12:13.132Z,0
2016-11-19T05:13:13.105Z,0
2016-11-19T05:14:13.085Z,0
2016-11-19T05:15:13.076Z,0
2016-11-19T05:16:13.072Z,0
2016-11-19T05:17:13.057Z,0
2016-11-19T05:18:13.043Z,0
2016-11-19T05:19:13.019Z,0
2016-11-19T05:20:13.000Z,0
2016-11-19T05:21:13.074Z,0
2016-11-19T05:22:12.977Z,0
2016-11-19T05:23:12.975Z,0
2016-11-19T05:24:13.045Z,0
2016-11-19T05:25:13.225Z,0
2016-11-19T05:26:13.215Z,0
2016-11-19T05:27:12.927Z,0
2016-11-19T05:28:12.932Z,0
2016-11-19T05:29:12.893Z,0
2016-11-19T05:30:12.900Z,0
2016-11-19T05:31:12.870Z,0
2016-11-19T05:32:12.855Z,0
2016-11-19T05:33:12.856Z,0
2016-11-19T05:34:13.715Z,0
2016-11-19T05:35:12.833Z,0
2016-11-19T05:36:12.806Z,0
2016-11-19T05:37:14.691Z,0
2016-11-19T05:38:13.273Z,0
2016-11-19T05:39:13.887Z,0
2016-11-19T05:40:12.802Z,0
2016-11-19T05:41:12.774Z,0
2016-11-19T05:42:12.726Z,0
2016-11-19T05:43:12.714Z,0
2016-11-19T05:44:12.709Z,0
2016-11-19T05:45:12.694Z,0
2016-11-19T05:46:12.672Z,0
2016-11-19T05:47:12.680Z,0
2016-11-19T05:48:12.646Z,0
2016-11-19T05:49:12.630Z,0
2016-11-19T05:50:12.627Z,0
2016-11-19T05:51:12.678Z,0
2016-11-19T05:52:12.598Z,0
2016-11-19T05:53:12.605Z,0
2016-11-19T05:54:12.633Z,0
2016-11-19T05:55:12.744Z,0
2016-11-19T05:56:12.572Z,0
2016-11-19T05:57:12.979Z,0
2016-11-19T05:58:12.810Z,0
2016-11-19T05:59:12.513Z,0
2016-11-19T06:00:12.547Z,0
2016-11-19T06:01:12.578Z,0
2016-11-19T06:02:12.471Z,0
2016-11-19T06:03:12.457Z,0
2016-11-19T06:04:12.440Z,0
2016-11-19T06:05:12.432Z,0
2016-11-19T06:06:12.438Z,0
2016-11-19T06:07:12.410Z,0
2016-11-19T06:08:12.392Z,0
2016-11-19T06:09:12.482Z,0
2016-11-19T06:10:12.379Z,0
2016-11-19T06:11:12.725Z,4
2016-11-19T06:12:12.350Z,4
2016-11-19T06:13:12.337Z,4
2016-11-19T06:14:12.319Z,4
2016-11-19T06:15:12.616Z,4
2016-11-19T06:16:12.290Z,8
2016-11-19T06:17:12.278Z,4
2016-11-19T06:18:12.276Z,8
2016-11-19T06:19:12.254Z,8
2016-11-19T06:20:12.238Z,8
2016-11-19T06:21:12.236Z,12
2016-11-19T06:22:13.219Z,12
2016-11-19T06:23:13.234Z,16
2016-11-19T06:24:13.240Z,16
2016-11-19T06:25:12.253Z,20
2016-11-19T06:26:12.239Z,24
2016-11-19T06:27:12.146Z,24
2016-11-19T06:28:12.147Z,24
2016-11-19T06:29:12.122Z,28
2016-11-19T06:30:12.111Z,32
2016-11-19T06:31:12.107Z,36
2016-11-19T06:32:12.114Z,40
2016-11-19T06:33:12.240Z,40
2016-11-19T06:34:12.057Z,44
2016-11-19T06:35:12.043Z,48
2016-11-19T06:36:12.035Z,48
2016-11-19T06:37:12.040Z,52
2016-11-19T06:38:12.022Z,52
2016-11-19T06:39:14.920Z,60
2016-11-19T06:40:11.983Z,60
2016-11-19T06:41:11.961Z,64
2016-11-19T06:42:11.961Z,72
2016-11-19T06:43:11.939Z,76
2016-11-19T06:44:11.993Z,76
2016-11-19T06:45:11.922Z,88
2016-11-19T06:46:11.905Z,92
2016-11-19T06:47:11.905Z,104
2016-11-19T06:48:11.879Z,108
2016-11-19T06:49:11.878Z,112
2016-11-19T06:50:11.856Z,128
2016-11-19T06:51:11.837Z,152
2016-11-19T06:52:11.840Z,172
2016-11-19T06:53:12.128Z,188
2016-11-19T06:54:11.820Z,216
2016-11-19T06:55:11.782Z,212
2016-11-19T06:56:12.274Z,200
2016-11-19T06:57:12.077Z,212
2016-11-19T06:58:12.014Z,212
2016-11-19T06:59:12.202Z,240
2016-11-19T07:00:11.737Z,240
2016-11-19T07:01:13.464Z,252
2016-11-19T07:02:11.941Z,244
2016-11-19T07:03:11.990Z,280
2016-11-19T07:04:11.846Z,252
2016-11-19T07:05:11.761Z,260
2016-11-19T07:06:11.677Z,264
2016-11-19T07:07:11.913Z,264
2016-11-19T07:08:13.714Z,296
2016-11-19T07:09:11.785Z,300
2016-11-19T07:10:11.815Z,308
2016-11-19T07:11:11.797Z,328
2016-11-19T07:12:11.776Z,312
2016-11-19T07:13:11.977Z,312
2016-11-19T07:14:11.762Z,304
2016-11-19T07:15:11.765Z,388
2016-11-19T07:16:11.740Z,352
2016-11-19T07:17:11.728Z,384
2016-11-19T07:18:11.723Z,404
2016-11-19T07:19:11.719Z,404
2016-11-19T07:20:11.555Z,484
2016-11-19T07:21:11.735Z,488
2016-11-19T07:22:11.560Z,516
2016-11-19T07:23:11.556Z,492
2016-11-19T07:24:11.433Z,552
2016-11-19T07:25:11.418Z,548
2016-11-19T07:26:11.408Z,612
2016-11-19T07:27:11.401Z,680
2016-11-19T07:28:11.375Z,604
2016-11-19T07:29:11.692Z,560
2016-11-19T07:30:11.373Z,676
2016-11-19T07:31:11.332Z,652
2016-11-19T07:32:11.319Z,748
2016-11-19T07:33:11.335Z,732
2016-11-19T07:34:11.299Z,796
2016-11-19T07:35:11.284Z,760
2016-11-19T07:36:11.277Z,752
2016-11-19T07:37:11.404Z,764
2016-11-19T07:38:11.244Z,828
2016-11-19T07:39:11.245Z,828
2016-11-19T07:40:11.224Z,964
2016-11-19T07:41:11.202Z,940
2016-11-19T07:42:11.189Z,952
2016-11-19T07:43:11.183Z,1004
2016-11-19T07:44:11.181Z,956
2016-11-19T07:45:11.178Z,1004
2016-11-19T07:46:11.193Z,1048
2016-11-19T07:47:11.130Z,1036
2016-11-19T07:48:11.131Z,916
2016-11-19T07:49:11.109Z,1072
2016-11-19T07:50:11.095Z,1132
2016-11-19T07:51:16.198Z,1124
2016-11-19T07:52:21.816Z,1336
2016-11-19T07:53:11.055Z,1216
2016-11-19T07:54:11.045Z,1232
2016-11-19T07:55:11.048Z,1400
2016-11-19T07:56:11.045Z,1296
2016-11-19T07:57:11.010Z,1372
2016-11-19T07:58:10.998Z,1348
2016-11-19T07:59:10.982Z,1388
2016-11-19T08:00:11.052Z,1428
2016-11-19T08:01:24.670Z,1500
2016-11-19T08:02:20.290Z,1524
2016-11-19T08:03:10.935Z,1476
2016-11-19T08:04:10.918Z,1596
2016-11-19T08:06:18.220Z,1516
2016-11-19T08:07:10.890Z,1488
2016-11-19T08:08:13.803Z,1484
2016-11-19T08:09:14.979Z,1452
2016-11-19T08:10:10.950Z,1480
2016-11-19T08:13:22.394Z,1448
2016-11-19T08:14:24.256Z,1556
2016-11-19T08:15:10.792Z,1504
2016-11-19T08:16:10.786Z,1540
2016-11-19T08:17:10.774Z,1472
2016-11-19T08:18:10.754Z,1560
2016-11-19T08:19:10.736Z,1608
2016-11-19T08:20:10.744Z,1588
2016-11-19T08:21:10.725Z,1624
2016-11-19T08:22:10.713Z,1832
2016-11-19T08:23:10.692Z,1880
2016-11-19T08:24:10.679Z,1836
2016-11-19T08:25:16.526Z,2012
2016-11-19T08:26:17.028Z,2000
2016-11-19T08:27:14.967Z,2020
2016-11-19T08:28:10.664Z,2164
2016-11-19T08:29:16.118Z,2100
2016-11-19T08:30:10.624Z,2160
2016-11-19T08:31:10.592Z,1964
2016-11-19T08:32:10.579Z,2136
2016-11-19T08:33:10.563Z,1768
2016-11-19T08:34:10.551Z,2040
2016-11-19T08:35:10.585Z,1992
2016-11-19T08:36:10.533Z,1800
2016-11-19T08:37:10.525Z,1736
2016-11-19T08:38:10.543Z,1700
2016-11-19T08:39:10.536Z,1764
2016-11-19T08:40:10.498Z,2124
2016-11-19T08:41:10.483Z,2188
2016-11-19T08:42:10.454Z,2396
2016-11-19T08:43:10.448Z,2352
2016-11-19T08:44:10.451Z,2196
2016-11-19T08:45:10.424Z,2260
2016-11-19T08:46:10.409Z,2212
2016-11-19T08:47:10.387Z,2508
2016-11-19T08:48:10.382Z,2664
2016-11-19T08:49:10.366Z,2732
2016-11-19T08:50:10.354Z,2592
2016-11-19T08:51:10.351Z,2432
2016-11-19T08:52:10.331Z,2496
2016-11-19T08:53:10.325Z,2368
2016-11-19T08:54:10.321Z,2836
2016-11-19T08:55:10.301Z,2620
2016-11-19T08:56:10.293Z,2672
2016-11-19T08:57:10.265Z,2608
2016-11-19T08:58:10.259Z,2864
2016-11-19T08:59:10.261Z,2928
2016-11-19T09:00:10.235Z,2956
2016-11-19T09:01:10.225Z,2820
2016-11-19T09:02:10.208Z,3376
2016-11-19T09:03:10.201Z,3156
2016-11-19T09:04:10.192Z,2908
2016-11-19T09:05:10.177Z,2768
2016-11-19T09:06:10.167Z,3020
2016-11-19T09:07:10.148Z,3252
2016-11-19T09:08:10.136Z,3220
2016-11-19T09:09:10.129Z,3292
2016-11-19T09:10:10.136Z,3148
2016-11-19T09:11:10.101Z,3484
2016-11-19T09:12:10.109Z,3684
2016-11-19T09:13:10.083Z,3704
2016-11-19T09:14:10.091Z,3764
2016-11-19T09:15:10.091Z,3652
2016-11-19T09:16:10.044Z,3560
2016-11-19T09:17:10.048Z,3592
2016-11-19T09:18:10.019Z,3912
2016-11-19T09:19:10.006Z,3880
2016-11-19T09:20:09.998Z,3600
2016-11-19T09:21:09.971Z,3576
2016-11-19T09:22:09.986Z,3700
2016-11-19T09:23:09.952Z,3676
2016-11-19T09:24:09.948Z,4104
2016-11-19T09:25:09.934Z,3920
2016-11-19T09:26:09.936Z,4196
2016-11-19T09:27:09.911Z,3980
2016-11-19T09:28:09.947Z,3972
2016-11-19T09:29:09.893Z,4164
2016-11-19T09:30:09.885Z,4120
2016-11-19T09:31:09.868Z,3980
2016-11-19T09:32:09.846Z,3924
2016-11-19T09:33:09.841Z,3932
2016-11-19T09:34:09.831Z,3724
2016-11-19T09:35:09.818Z,3396
2016-11-19T09:36:09.803Z,3612
2016-11-19T09:37:09.813Z,3652
2016-11-19T09:38:10.113Z,3824
2016-11-19T09:39:09.774Z,3548
2016-11-19T09:40:09.759Z,3612
2016-11-19T09:41:09.805Z,3592
2016-11-19T09:44:18.695Z,3940
2016-11-19T09:45:18.951Z,4256
2016-11-19T09:46:18.510Z,4172
2016-11-19T09:47:18.502Z,4116
2016-11-19T09:48:18.492Z,3784
2016-11-19T09:49:18.496Z,3912
2016-11-19T09:50:18.470Z,3820
2016-11-19T09:51:18.458Z,3704
2016-11-19T09:52:18.444Z,3876
2016-11-19T09:53:18.422Z,3780
2016-11-19T09:54:18.425Z,3952
2016-11-19T09:55:18.400Z,4308
2016-11-19T09:56:18.390Z,4188
2016-11-19T09:57:18.420Z,3880
2016-11-19T09:58:18.383Z,4520
2016-11-19T09:59:18.369Z,4540
2016-11-19T10:00:18.351Z,4532
2016-11-19T10:01:18.331Z,3636
2016-11-19T10:02:18.316Z,3760
2016-11-19T10:03:18.318Z,3584
2016-11-19T10:04:18.293Z,3868
2016-11-19T10:05:18.285Z,3856
2016-11-19T10:06:18.299Z,3544
2016-11-19T10:07:18.347Z,3488
2016-11-19T10:08:18.253Z,3712
2016-11-19T10:09:18.334Z,3472
2016-11-19T10:10:18.227Z,3392
2016-11-19T10:11:18.232Z,3864
2016-11-19T10:12:18.206Z,3696
2016-11-19T10:13:18.192Z,3944
2016-11-19T10:14:18.198Z,3844
2016-11-19T10:15:18.175Z,3380
2016-11-19T10:16:18.165Z,3460
2016-11-19T10:17:18.155Z,3448
2016-11-19T10:18:18.148Z,3308
2016-11-19T10:19:18.135Z,3160
2016-11-19T10:20:18.122Z,3156
2016-11-19T10:21:18.106Z,3164
2016-11-19T10:22:18.105Z,3256
2016-11-19T10:23:18.298Z,3216
2016-11-19T10:24:18.076Z,3516
2016-11-19T10:25:18.055Z,3056
2016-11-19T10:26:18.049Z,2760
2016-11-19T10:27:18.036Z,3224
2016-11-19T10:28:18.025Z,2872
2016-11-19T10:29:18.004Z,3036
2016-11-19T10:30:18.001Z,3252
2016-11-19T10:31:17.989Z,3148
2016-11-19T10:32:17.994Z,2796
2016-11-19T10:33:17.956Z,2780
2016-11-19T10:34:17.960Z,3152
2016-11-19T10:35:17.936Z,2592
2016-11-19T10:36:17.942Z,2892
2016-11-19T10:37:17.956Z,2756
2016-11-19T10:38:17.923Z,2388
2016-11-19T10:39:17.942Z,2124
2016-11-19T10:41:17.880Z,1900
2016-11-19T10:42:17.869Z,1880
2016-11-19T10:43:17.862Z,1948
2016-11-19T10:44:17.839Z,1844
2016-11-19T10:45:17.824Z,1996
2016-11-19T10:46:17.814Z,1956
2016-11-19T10:47:17.804Z,1920
2016-11-19T10:48:17.789Z,1836
2016-11-19T10:49:17.777Z,2264
2016-11-19T10:50:17.773Z,2360
2016-11-19T10:51:17.745Z,2488
2016-11-19T10:52:17.737Z,2656
2016-11-19T10:53:17.734Z,2468
2016-11-19T10:54:17.726Z,2256
2016-11-19T10:55:17.706Z,2448
2016-11-19T10:56:17.687Z,2232
2016-11-19T10:57:17.683Z,1964
2016-11-19T10:58:17.676Z,2152
2016-11-19T10:59:17.675Z,2200
2016-11-19T11:00:17.649Z,2192
2016-11-19T11:01:17.628Z,2276
2016-11-19T11:02:17.620Z,2336
2016-11-19T11:03:17.615Z,2452
2016-11-19T11:04:17.602Z,2252
2016-11-19T11:05:17.587Z,2376
2016-11-19T11:06:17.574Z,2268
2016-11-19T11:07:17.555Z,2252
2016-11-19T11:08:17.617Z,2316
2016-11-19T11:09:17.558Z,2460
2016-11-19T11:10:17.539Z,2416
2016-11-19T11:11:17.514Z,2320
2016-11-19T11:12:17.507Z,2176
2016-11-19T11:13:17.491Z,2352
2016-11-19T11:14:17.487Z,2492
2016-11-19T11:15:17.487Z,2692
2016-11-19T11:16:17.630Z,2540
2016-11-19T11:17:17.438Z,2428
2016-11-19T11:18:17.431Z,2208
2016-11-19T11:19:17.744Z,2184
2016-11-19T11:20:17.407Z,2380
2016-11-19T11:21:17.394Z,2796
2016-11-19T11:22:17.382Z,2576
2016-11-19T11:23:17.366Z,2472
2016-11-19T11:24:17.357Z,2100
2016-11-19T11:25:17.361Z,1992
2016-11-19T11:26:17.342Z,1748
2016-11-19T11:27:17.352Z,1692
2016-11-19T11:28:17.312Z,1988
2016-11-19T11:29:17.297Z,1912
2016-11-19T11:30:17.387Z,1604
2016-11-19T11:31:17.281Z,1408
2016-11-19T11:32:17.262Z,1404
2016-11-19T11:33:17.257Z,1452
2016-11-19T11:34:17.239Z,1392
2016-11-19T11:35:17.227Z,1324
2016-11-19T11:36:17.240Z,1260
2016-11-19T11:37:17.221Z,1296
2016-11-19T11:38:17.352Z,1300
2016-11-19T11:39:17.338Z,1388
2016-11-19T11:40:17.166Z,1376
2016-11-19T11:41:17.374Z,1368
2016-11-19T11:42:17.146Z,1312
2016-11-19T11:43:17.302Z,1316
2016-11-19T11:44:17.177Z,1604
2016-11-19T11:45:17.105Z,1504
2016-11-19T11:46:17.097Z,1400
2016-11-19T11:47:17.088Z,1368
2016-11-19T11:48:17.264Z,1360
2016-11-19T11:49:17.060Z,1344
2016-11-19T11:50:17.061Z,1400
2016-11-19T11:51:17.032Z,1400
2016-11-19T11:52:17.047Z,1456
2016-11-19T11:53:17.030Z,1396
2016-11-19T11:54:17.005Z,1412
2016-11-19T11:55:16.997Z,1444
2016-11-19T11:56:16.980Z,1440
2016-11-19T11:57:16.974Z,1452
2016-11-19T11:58:16.954Z,1448
2016-11-19T11:59:16.953Z,1376
2016-11-19T12:00:16.971Z,1380
2016-11-19T12:01:16.938Z,1380
2016-11-19T12:02:16.911Z,1328
2016-11-19T12:03:16.893Z,1284
2016-11-19T12:04:16.896Z,1268
2016-11-19T12:05:16.874Z,1124
2016-11-19T12:06:16.863Z,1052
2016-11-19T12:07:17.176Z,1068
2016-11-19T12:08:16.830Z,1088
2016-11-19T12:09:16.840Z,948
2016-11-19T12:10:16.813Z,880
2016-11-19T12:11:16.806Z,1040
2016-11-19T12:12:16.822Z,1168
2016-11-19T12:13:16.789Z,1160
2016-11-19T12:14:16.768Z,1212
2016-11-19T12:15:16.762Z,1184
2016-11-19T12:16:16.743Z,1096
2016-11-19T12:17:16.745Z,1044
2016-11-19T12:18:16.725Z,1024
2016-11-19T12:19:16.701Z,1036
2016-11-19T12:20:16.695Z,1084
2016-11-19T12:21:16.681Z,1164
2016-11-19T12:22:16.671Z,1244
2016-11-19T12:23:16.656Z,1228
2016-11-19T12:24:16.847Z,1224
2016-11-19T12:25:16.633Z,1192
2016-11-19T12:26:16.613Z,1180
2016-11-19T12:27:16.608Z,1168
2016-11-19T12:28:17.002Z,1180
2016-11-19T12:29:16.581Z,1172
2016-11-19T12:30:16.569Z,1124
2016-11-19T12:31:16.580Z,1140
2016-11-19T12:32:16.596Z,1136
2016-11-19T12:33:16.532Z,1104
2016-11-19T12:34:16.538Z,1076
2016-11-19T12:35:16.505Z,1104
2016-11-19T12:36:16.487Z,1164
2016-11-19T12:37:16.481Z,1232
2016-11-19T12:38:16.486Z,1288
2016-11-19T12:39:16.452Z,1304
2016-11-19T12:40:16.449Z,1312
2016-11-19T12:41:16.434Z,1336
2016-11-19T12:42:16.420Z,1372
2016-11-19T12:43:16.432Z,1424
2016-11-19T12:44:16.394Z,1512
2016-11-19T12:45:16.385Z,1644
2016-11-19T12:46:16.697Z,1760
2016-11-19T12:47:16.395Z,1820
2016-11-19T12:48:16.344Z,1868
2016-11-19T12:49:16.328Z,1912
2016-11-19T12:50:16.337Z,1956
2016-11-19T12:51:16.311Z,1948
2016-11-19T12:52:16.295Z,1916
2016-11-19T12:53:16.389Z,1928
2016-11-19T12:54:16.287Z,1964
2016-11-19T12:55:16.248Z,2044
2016-11-19T12:56:16.265Z,2140
2016-11-19T12:57:16.232Z,2240
2016-11-19T12:58:16.238Z,2288
2016-11-19T12:59:16.206Z,2284
2016-11-19T13:00:16.193Z,2256
2016-11-19T13:01:16.179Z,2200
2016-11-19T13:02:16.175Z,2032
2016-11-19T13:03:16.155Z,1960
2016-11-19T13:04:16.150Z,1812
2016-11-19T13:05:16.122Z,1704
2016-11-19T13:06:16.113Z,1636
2016-11-19T13:07:16.147Z,1584
2016-11-19T13:08:16.095Z,1564
2016-11-19T13:09:16.082Z,1576
2016-11-19T13:10:16.066Z,1600
2016-11-19T13:11:16.059Z,1580
2016-11-19T13:12:16.048Z,1652
2016-11-19T13:13:16.036Z,1596
2016-11-19T13:14:16.014Z,1640
2016-11-19T13:15:16.000Z,1756
2016-11-19T13:16:15.985Z,1784
2016-11-19T13:17:15.974Z,1840
2016-11-19T13:18:15.960Z,1924
2016-11-19T13:19:15.953Z,2020
2016-11-19T13:20:15.941Z,2088
2016-11-19T13:21:15.921Z,2076
2016-11-19T13:22:15.971Z,1856
2016-11-19T13:23:15.892Z,1588
2016-11-19T13:24:16.195Z,1360
2016-11-19T13:25:15.897Z,1192
2016-11-19T13:26:15.871Z,1092
2016-11-19T13:27:15.851Z,1096
2016-11-19T13:28:15.861Z,1092
2016-11-19T13:29:15.863Z,1084
2016-11-19T13:30:15.880Z,1112
2016-11-19T13:31:15.879Z,1124
2016-11-19T13:32:15.794Z,1132
2016-11-19T13:33:15.800Z,1128
2016-11-19T13:34:15.831Z,1088
2016-11-19T13:35:15.817Z,1068
2016-11-19T13:36:15.830Z,1084
2016-11-19T13:37:15.816Z,1172
2016-11-19T13:38:15.768Z,1208
2016-11-19T13:39:15.786Z,1100
2016-11-19T13:40:15.783Z,1016
2016-11-19T13:41:15.803Z,1000
2016-11-19T13:42:15.796Z,940
2016-11-19T13:43:15.802Z,884
2016-11-19T13:44:15.824Z,840
2016-11-19T13:45:15.728Z,800
2016-11-19T13:46:15.750Z,740
2016-11-19T13:47:15.739Z,752
2016-11-19T13:48:15.749Z,740
2016-11-19T13:49:15.774Z,772
2016-11-19T13:50:15.762Z,752
2016-11-19T13:51:15.728Z,696
2016-11-19T13:52:15.694Z,624
2016-11-19T13:53:15.700Z,548
2016-11-19T13:54:15.732Z,508
2016-11-19T13:55:15.757Z,516
2016-11-19T13:56:15.785Z,552
2016-11-19T13:57:15.631Z,580
2016-11-19T13:58:15.633Z,648
2016-11-19T13:59:15.653Z,708
2016-11-19T14:00:15.642Z,740
2016-11-19T14:01:15.659Z,768
2016-11-19T14:02:15.664Z,816
2016-11-19T14:03:15.681Z,844
2016-11-19T14:04:15.664Z,880
2016-11-19T14:05:15.532Z,876
2016-11-19T14:06:15.534Z,892
2016-11-19T14:07:15.512Z,832